Time;durP1;ratioP1;P1;durP2;ratioP2;P2;SDS_P1;SDS_P2;PMS_P1;PMS_P2;Temp;Humidity;BMP_temperature;BMP_pressure;BME280_temperature;BME280_humidity;BME280_pressure;Samples;Min_cycle;Max_cycle;Signal;HPM_P1;HPM_P2
2023/10/16 00:00:47;;;;;;;2.67;0.90;;;6.80;99.90;;;;;;5086282;28;20326;-66
2023/10/16 00:03:17;;;;;;;2.37;0.83;;;6.80;99.90;;;;;;5098554;28;20205;-66
2023/10/16 00:05:49;;;;;;;2.93;1.17;;;6.80;99.90;;;;;;5106186;28;20226;-66
2023/10/16 00:08:17;;;;;;;3.80;1.20;;;6.70;99.90;;;;;;5106572;28;20194;-66
2023/10/16 00:10:53;;;;;;;3.20;0.97;;;6.70;99.90;;;;;;5106759;28;20212;-65
2023/10/16 00:13:26;;;;;;;2.73;1.10;;;6.70;99.90;;;;;;5106566;28;20232;-65
2023/10/16 00:15:55;;;;;;;2.13;0.97;;;6.70;99.90;;;;;;5106252;28;20237;-66
2023/10/16 00:18:33;;;;;;;2.10;0.90;;;6.70;99.90;;;;;;5106130;28;20893;-65
2023/10/16 00:21:00;;;;;;;2.70;1.00;;;6.70;99.90;;;;;;5106485;28;20210;-65
2023/10/16 00:23:30;;;;;;;2.83;1.00;;;6.60;99.90;;;;;;5105939;28;20206;-65
2023/10/16 00:25:58;;;;;;;2.27;0.93;;;6.50;99.90;;;;;;5106175;28;20957;-65
2023/10/16 00:28:25;;;;;;;2.03;0.80;;;6.50;99.90;;;;;;5105999;28;20679;-65
2023/10/16 00:30:52;;;;;;;2.73;1.00;;;6.50;99.90;;;;;;5106090;28;20224;-65
2023/10/16 00:33:19;;;;;;;2.07;1.00;;;6.50;99.90;;;;;;5106128;28;20213;-66
2023/10/16 00:35:49;;;;;;;4.87;0.80;;;6.50;99.90;;;;;;5106162;28;20320;-67
2023/10/16 00:38:19;;;;;;;2.53;1.00;;;6.50;99.90;;;;;;5106553;28;20281;-67
2023/10/16 00:40:51;;;;;;;3.27;0.90;;;6.50;99.90;;;;;;5103145;28;20237;-67
2023/10/16 00:43:20;;;;;;;2.47;1.20;;;6.50;99.90;;;;;;5085805;28;20385;-67
2023/10/16 00:45:49;;;;;;;1.83;1.00;;;6.60;99.90;;;;;;5088435;28;20235;-66
2023/10/16 00:48:18;;;;;;;5.30;1.27;;;6.60;99.90;;;;;;5105875;28;20213;-67
2023/10/16 00:50:48;;;;;;;3.37;1.10;;;6.50;99.90;;;;;;5106076;28;20202;-67
2023/10/16 00:53:20;;;;;;;2.97;1.13;;;6.50;99.90;;;;;;5106425;28;20198;-67
2023/10/16 00:55:47;;;;;;;2.90;1.00;;;6.40;99.90;;;;;;5106047;28;20194;-67
2023/10/16 00:58:14;;;;;;;2.37;0.87;;;6.30;99.90;;;;;;5103623;28;20656;-67
2023/10/16 01:00:45;;;;;;;1.37;0.90;;;6.30;99.90;;;;;;5085431;28;20767;-67
2023/10/16 01:03:13;;;;;;;3.80;0.97;;;6.30;99.90;;;;;;5085165;28;20203;-67
2023/10/16 01:05:42;;;;;;;2.97;0.80;;;6.30;99.90;;;;;;5085118;28;20321;-67
2023/10/16 01:08:11;;;;;;;2.20;1.00;;;6.30;99.90;;;;;;5087531;28;20800;-67
2023/10/16 01:10:40;;;;;;;2.33;0.90;;;6.30;99.90;;;;;;5105815;28;20302;-67
2023/10/16 01:13:11;;;;;;;1.20;0.73;;;6.30;99.90;;;;;;5105996;28;20289;-67
2023/10/16 01:15:43;;;;;;;2.73;1.20;;;6.20;99.90;;;;;;5105948;28;20201;-67
2023/10/16 01:18:13;;;;;;;2.63;0.83;;;6.30;99.90;;;;;;5106227;28;20186;-67
2023/10/16 01:20:46;;;;;;;3.83;1.13;;;6.20;99.90;;;;;;5110454;28;20692;-67
2023/10/16 01:23:16;;;;;;;2.73;0.90;;;6.30;99.90;;;;;;5110209;28;20190;-67
2023/10/16 01:25:46;;;;;;;2.03;0.97;;;6.20;99.90;;;;;;5105555;28;20194;-67
2023/10/16 01:28:15;;;;;;;2.50;1.17;;;6.10;99.90;;;;;;5089504;28;20213;-67
2023/10/16 01:30:43;;;;;;;7.43;1.30;;;6.20;99.90;;;;;;5089812;28;20209;-67
2023/10/16 01:33:10;;;;;;;3.20;0.90;;;6.20;99.90;;;;;;5089076;28;20217;-67
2023/10/16 01:35:37;;;;;;;3.87;1.07;;;6.20;99.90;;;;;;5089086;28;20252;-67
2023/10/16 01:38:14;;;;;;;3.37;1.33;;;6.20;99.90;;;;;;5089250;28;20226;-67
2023/10/16 01:40:47;;;;;;;2.77;0.90;;;6.10;99.90;;;;;;5089392;28;20205;-67
2023/10/16 01:43:14;;;;;;;2.53;1.00;;;6.10;99.90;;;;;;5089045;28;20219;-67
2023/10/16 01:45:49;;;;;;;4.37;1.40;;;6.10;99.90;;;;;;5091134;28;20299;-67
2023/10/16 01:48:19;;;;;;;2.23;1.00;;;6.10;99.90;;;;;;5109308;28;20201;-67
2023/10/16 01:50:48;;;;;;;2.63;0.90;;;6.20;99.90;;;;;;5109842;28;20210;-67
2023/10/16 01:53:20;;;;;;;3.77;1.20;;;6.10;99.90;;;;;;5109132;28;20300;-67
2023/10/16 01:55:54;;;;;;;4.73;1.30;;;6.10;99.90;;;;;;5096385;28;20298;-67
2023/10/16 01:58:22;;;;;;;2.10;1.07;;;6.20;99.90;;;;;;5089172;28;20283;-67
2023/10/16 02:00:49;;;;;;;2.77;1.47;;;6.20;99.90;;;;;;5089065;28;20210;-67
2023/10/16 02:03:17;;;;;;;3.03;1.30;;;6.10;99.90;;;;;;5088392;28;20582;-67
2023/10/16 02:05:45;;;;;;;3.83;1.40;;;6.20;99.90;;;;;;5088767;28;20234;-67
2023/10/16 02:08:13;;;;;;;1.53;0.80;;;6.10;99.90;;;;;;5088924;28;20210;-66
2023/10/16 02:10:40;;;;;;;1.60;0.83;;;6.20;99.90;;;;;;5089118;28;20211;-66
2023/10/16 02:13:09;;;;;;;4.03;0.90;;;6.30;99.90;;;;;;5088694;28;20210;-66
2023/10/16 02:15:37;;;;;;;2.50;1.17;;;6.20;99.90;;;;;;5088925;28;20203;-66
2023/10/16 02:18:06;;;;;;;1.83;1.03;;;6.10;99.90;;;;;;5094054;28;20682;-67
2023/10/16 02:20:36;;;;;;;1.20;1.07;;;6.10;99.90;;;;;;5109157;28;20212;-66
2023/10/16 02:23:06;;;;;;;3.87;1.10;;;6.10;99.90;;;;;;5109223;28;20230;-66
2023/10/16 02:25:35;;;;;;;1.73;0.87;;;6.10;99.90;;;;;;5108786;28;20871;-66
2023/10/16 02:28:03;;;;;;;3.63;1.17;;;6.00;99.90;;;;;;5108644;28;20210;-66
2023/10/16 02:30:35;;;;;;;3.13;1.37;;;6.00;99.90;;;;;;5086853;28;20414;-66
2023/10/16 02:33:13;;;;;;;3.60;1.33;;;6.00;99.90;;;;;;5087593;28;20203;-66
2023/10/16 02:35:42;;;;;;;3.80;1.03;;;6.10;99.90;;;;;;5107003;28;20645;-66
2023/10/16 02:38:13;;;;;;;0.97;0.90;;;6.00;99.90;;;;;;5106892;28;20300;-66
2023/10/16 02:40:43;;;;;;;1.63;1.00;;;6.10;99.90;;;;;;5106897;28;20244;-67
2023/10/16 02:43:18;;;;;;;1.70;0.87;;;6.00;99.90;;;;;;5106852;28;20230;-66
2023/10/16 02:45:51;;;;;;;2.43;1.23;;;6.10;99.90;;;;;;5106886;28;20197;-71
2023/10/16 02:48:20;;;;;;;3.03;1.10;;;6.00;99.90;;;;;;5106718;28;20248;-66
2023/10/16 02:50:53;;;;;;;2.37;1.10;;;5.90;99.90;;;;;;5106603;28;20573;-66
2023/10/16 02:53:22;;;;;;;6.50;1.20;;;6.00;99.90;;;;;;5106791;28;20286;-66
2023/10/16 02:55:57;;;;;;;4.07;1.23;;;5.90;99.90;;;;;;5106749;27;20206;-66
2023/10/16 02:58:25;;;;;;;1.87;1.10;;;5.90;99.90;;;;;;5106748;27;20201;-66
2023/10/16 03:00:55;;;;;;;3.17;1.13;;;5.80;99.90;;;;;;5106630;28;20736;-66
2023/10/16 03:03:24;;;;;;;1.33;0.93;;;5.80;99.90;;;;;;5106455;28;20248;-66
2023/10/16 03:05:52;;;;;;;2.23;1.07;;;5.70;99.90;;;;;;5106355;28;20627;-66
2023/10/16 03:08:21;;;;;;;4.40;1.00;;;5.70;99.90;;;;;;5106673;27;20557;-66
2023/10/16 03:10:48;;;;;;;4.73;1.20;;;5.70;99.90;;;;;;5102644;28;20226;-66
2023/10/16 03:13:18;;;;;;;1.90;1.13;;;5.70;99.90;;;;;;5098361;28;20326;-66
2023/10/16 03:15:47;;;;;;;3.70;1.00;;;5.70;99.90;;;;;;5103818;28;20210;-66
2023/10/16 03:18:22;;;;;;;2.83;1.03;;;5.70;99.90;;;;;;5106466;28;20206;-66
2023/10/16 03:20:50;;;;;;;1.87;0.90;;;5.70;99.90;;;;;;5106851;28;20190;-66
2023/10/16 03:23:18;;;;;;;1.70;1.07;;;5.70;99.90;;;;;;5107026;28;20249;-66
2023/10/16 03:25:51;;;;;;;2.93;1.03;;;5.70;99.90;;;;;;5102173;28;20211;-66
2023/10/16 03:28:18;;;;;;;5.13;1.30;;;5.60;99.90;;;;;;5086481;28;20676;-66
2023/10/16 03:30:45;;;;;;;2.30;1.20;;;5.60;99.90;;;;;;5086605;28;20207;-66
2023/10/16 03:33:14;;;;;;;1.87;0.73;;;5.60;99.90;;;;;;5087009;28;20301;-66
2023/10/16 03:35:47;;;;;;;1.50;1.00;;;5.60;99.90;;;;;;5087129;28;20249;-66
2023/10/16 03:38:24;;;;;;;1.80;1.10;;;5.60;99.90;;;;;;5087097;28;20666;-66
2023/10/16 03:40:52;;;;;;;3.40;0.90;;;5.60;99.90;;;;;;5086327;28;20289;-67
2023/10/16 03:43:20;;;;;;;4.83;1.10;;;5.70;99.90;;;;;;5086589;28;20245;-66
2023/10/16 03:45:47;;;;;;;2.97;0.90;;;5.70;99.90;;;;;;5089017;28;20214;-66
2023/10/16 03:48:16;;;;;;;5.60;1.70;;;5.70;99.90;;;;;;5106622;28;20209;-66
2023/10/16 03:50:46;;;;;;;2.43;0.90;;;5.70;99.90;;;;;;5107054;28;20210;-66
2023/10/16 03:53:14;;;;;;;4.00;1.10;;;5.70;99.90;;;;;;5107088;28;20237;-67
2023/10/16 03:55:43;;;;;;;5.17;0.90;;;5.70;99.90;;;;;;5107247;28;20222;-67
2023/10/16 03:58:11;;;;;;;3.37;1.13;;;5.70;99.90;;;;;;5106945;28;20202;-66
2023/10/16 04:00:50;;;;;;;1.80;1.07;;;5.70;99.90;;;;;;5107436;28;20213;-66
2023/10/16 04:03:19;;;;;;;5.70;1.50;;;5.70;99.90;;;;;;5106978;28;20283;-66
2023/10/16 04:05:47;;;;;;;2.90;1.30;;;5.60;99.90;;;;;;5106714;28;20206;-66
2023/10/16 04:08:15;;;;;;;1.53;1.20;;;5.70;99.90;;;;;;5107018;28;20283;-66
2023/10/16 04:10:46;;;;;;;2.20;1.00;;;5.70;99.90;;;;;;5106616;28;20675;-67
2023/10/16 04:13:14;;;;;;;3.03;1.07;;;5.70;99.90;;;;;;5106566;28;20680;-66
2023/10/16 04:18:30;;;;;;;2.63;1.30;;;5.70;99.90;;;;;;5106485;28;20282;-66
2023/10/16 04:23:55;;;;;;;4.30;1.13;;;5.70;99.90;;;;;;5080793;28;20320;-66
2023/10/16 04:26:33;;;;;;;1.97;1.20;;;5.70;99.90;;;;;;5096353;28;20298;-66
2023/10/16 04:31:45;;;;;;;3.40;1.20;;;5.70;99.90;;;;;;5086114;28;20198;-67
2023/10/16 04:34:24;;;;;;;1.20;0.97;;;5.50;99.90;;;;;;5085923;28;20292;-66
2023/10/16 04:36:53;;;;;;;2.57;1.20;;;5.40;99.90;;;;;;5085807;28;20239;-66
2023/10/16 04:47:56;;;;;;;3.73;1.27;;;5.20;99.90;;;;;;5095613;28;20235;-66
2023/10/16 04:50:29;;;;;;;1.80;1.00;;;5.20;99.90;;;;;;5086119;28;20209;-66
2023/10/16 04:53:09;;;;;;;6.87;1.37;;;5.20;99.90;;;;;;5084852;28;20217;-66
2023/10/16 04:55:53;;;;;;;1.30;0.90;;;5.10;99.90;;;;;;5085945;28;20226;-66
2023/10/16 05:06:49;;;;;;;3.40;1.00;;;5.10;99.90;;;;;;5085419;28;20203;-66
2023/10/16 06:15:20;;;;;;;5.90;1.70;;;5.30;99.90;;;;;;5089147;28;20190;-67
2023/10/16 06:17:47;;;;;;;1.63;1.30;;;5.30;99.90;;;;;;5088952;28;20225;-67
2023/10/16 06:20:21;;;;;;;3.37;1.33;;;5.30;99.90;;;;;;5088665;28;20224;-66
2023/10/16 06:22:51;;;;;;;5.60;1.30;;;5.30;99.90;;;;;;5088811;28;20712;-67
2023/10/16 06:25:19;;;;;;;3.43;1.27;;;5.20;99.90;;;;;;5088994;28;20215;-67
2023/10/16 06:27:47;;;;;;;3.90;1.50;;;5.20;99.90;;;;;;5089071;28;20207;-67
2023/10/16 06:30:19;;;;;;;4.30;1.60;;;5.20;99.90;;;;;;5088991;28;20210;-67
2023/10/16 06:32:49;;;;;;;2.57;1.27;;;5.30;99.90;;;;;;5088664;28;20203;-67
2023/10/16 06:35:18;;;;;;;2.63;1.30;;;5.30;99.90;;;;;;5088492;28;20299;-67
2023/10/16 06:37:51;;;;;;;4.33;1.77;;;5.40;99.90;;;;;;5088560;28;20698;-67
2023/10/16 06:40:24;;;;;;;3.63;1.80;;;5.40;99.90;;;;;;5088175;28;20199;-67
2023/10/16 06:42:54;;;;;;;3.20;1.10;;;5.40;99.90;;;;;;5088450;28;20308;-67
2023/10/16 06:45:40;;;;;;;4.90;1.47;;;5.40;99.90;;;;;;5088062;28;20229;-67
2023/10/16 06:48:10;;;;;;;4.07;1.33;;;5.50;99.90;;;;;;5088472;28;20194;-67
2023/10/16 06:50:44;;;;;;;5.83;1.83;;;5.60;99.90;;;;;;5088470;28;20206;-67
2023/10/16 06:53:11;;;;;;;6.00;1.43;;;5.60;99.90;;;;;;5087988;28;20191;-67
2023/10/16 06:55:38;;;;;;;5.80;1.60;;;5.70;99.90;;;;;;5087978;28;20252;-67
2023/10/16 06:58:06;;;;;;;3.43;1.43;;;5.70;99.90;;;;;;5088151;28;20207;-67
2023/10/16 07:00:38;;;;;;;2.37;1.47;;;5.80;99.90;;;;;;5103982;28;20291;-67
2023/10/16 07:03:12;;;;;;;5.90;1.70;;;5.80;99.90;;;;;;5108204;28;20234;-67
2023/10/16 07:05:48;;;;;;;2.07;1.43;;;5.80;99.90;;;;;;5108426;28;20190;-67
2023/10/16 07:08:17;;;;;;;3.87;1.70;;;5.80;99.90;;;;;;5108779;28;20202;-67
2023/10/16 07:10:48;;;;;;;4.03;1.40;;;5.90;99.90;;;;;;5108489;28;20716;-67
2023/10/16 07:13:26;;;;;;;5.87;2.00;;;5.90;99.90;;;;;;5108134;28;20711;-67
2023/10/16 07:15:56;;;;;;;8.93;1.70;;;6.00;99.90;;;;;;5096161;28;20206;-67
2023/10/16 07:18:25;;;;;;;3.47;1.50;;;6.10;99.90;;;;;;5108062;28;20292;-67
2023/10/16 07:21:06;;;;;;;1.77;1.60;;;6.20;99.90;;;;;;5108372;28;20216;-67
2023/10/16 07:23:35;;;;;;;3.13;1.60;;;6.30;99.90;;;;;;5108234;28;20536;-67
2023/10/16 07:26:02;;;;;;;5.30;1.70;;;6.30;99.90;;;;;;5107329;27;20657;-67
2023/10/16 07:28:30;;;;;;;1.73;1.53;;;6.50;99.90;;;;;;5108110;28;20300;-67
2023/10/16 07:31:02;;;;;;;2.87;1.70;;;6.50;99.90;;;;;;5107704;28;20955;-67
2023/10/16 07:33:30;;;;;;;2.77;1.57;;;6.60;99.90;;;;;;5107583;28;20194;-67
2023/10/16 07:35:58;;;;;;;5.07;1.53;;;6.70;99.90;;;;;;5107232;28;20787;-67
2023/10/16 07:38:27;;;;;;;2.77;1.70;;;6.70;99.90;;;;;;5107620;28;20861;-67
2023/10/16 07:40:55;;;;;;;7.30;1.80;;;6.90;99.90;;;;;;5107346;28;20293;-67
2023/10/16 07:43:26;;;;;;;3.87;1.50;;;6.90;99.90;;;;;;5093224;28;20404;-67
2023/10/16 07:46:07;;;;;;;6.13;1.87;;;6.90;99.90;;;;;;5090818;28;20237;-67
2023/10/16 07:48:37;;;;;;;4.90;1.73;;;6.90;99.90;;;;;;5107685;28;20267;-67
2023/10/16 07:51:06;;;;;;;4.13;1.67;;;7.00;99.90;;;;;;5107091;28;20206;-67
2023/10/16 07:53:34;;;;;;;5.77;1.57;;;7.00;99.90;;;;;;5107348;28;20759;-67
2023/10/16 07:56:02;;;;;;;4.27;1.87;;;7.00;99.90;;;;;;5098067;27;20202;-67
2023/10/16 07:58:33;;;;;;;1.50;1.30;;;7.10;99.90;;;;;;5086886;28;20210;-67
2023/10/16 08:01:17;;;;;;;5.30;1.43;;;7.20;99.90;;;;;;5087120;28;20199;-67
2023/10/16 08:03:47;;;;;;;3.60;1.40;;;7.20;99.90;;;;;;5086543;28;20288;-67
2023/10/16 08:06:17;;;;;;;6.23;2.07;;;7.30;99.90;;;;;;5086715;28;20237;-67
2023/10/16 08:08:48;;;;;;;3.90;1.60;;;7.40;99.90;;;;;;5086942;28;20528;-67
2023/10/16 08:11:18;;;;;;;3.50;1.40;;;7.50;99.90;;;;;;5093645;28;20206;-67
2023/10/16 08:13:47;;;;;;;3.43;1.40;;;7.60;99.90;;;;;;5107546;28;20224;-67
2023/10/16 08:16:19;;;;;;;3.03;1.43;;;7.70;99.90;;;;;;5106882;28;20202;-67
2023/10/16 08:18:49;;;;;;;5.93;1.60;;;7.80;99.90;;;;;;5107038;28;21012;-67
2023/10/16 08:21:25;;;;;;;3.67;1.70;;;7.80;99.90;;;;;;5106949;28;20198;-67
2023/10/16 08:23:53;;;;;;;4.23;1.83;;;7.80;99.90;;;;;;5107060;28;20232;-67
2023/10/16 08:26:30;;;;;;;3.43;1.50;;;7.90;99.90;;;;;;5106875;28;20206;-67
2023/10/16 08:29:11;;;;;;;3.47;1.60;;;8.00;99.90;;;;;;5107025;28;20186;-67
2023/10/16 08:31:41;;;;;;;3.80;1.40;;;8.10;99.90;;;;;;5107334;28;20281;-67
2023/10/16 08:34:10;;;;;;;3.13;1.30;;;8.20;99.90;;;;;;5106517;28;20209;-67
2023/10/16 08:36:37;;;;;;;5.60;1.60;;;8.30;99.90;;;;;;5106392;28;20273;-67
2023/10/16 08:39:09;;;;;;;3.13;1.17;;;8.40;99.90;;;;;;5106720;28;20217;-67
2023/10/16 08:41:45;;;;;;;6.60;3.07;;;8.60;99.90;;;;;;5106652;28;20964;-67
2023/10/16 08:44:17;;;;;;;2.47;1.63;;;8.70;99.90;;;;;;5106469;28;20225;-67
2023/10/16 08:46:53;;;;;;;2.70;1.47;;;8.60;99.90;;;;;;5106347;28;20292;-67
2023/10/16 08:49:23;;;;;;;3.83;1.17;;;8.70;99.90;;;;;;5106523;28;20225;-67
2023/10/16 08:51:52;;;;;;;2.40;1.20;;;8.70;99.90;;;;;;5106119;28;20237;-67
2023/10/16 08:55:00;;;;;;;4.37;1.33;;;8.80;99.90;;;;;;5106473;28;20293;-67
2023/10/16 08:57:28;;;;;;;5.07;1.70;;;8.90;99.90;;;;;;5106292;28;20670;-67
2023/10/16 08:59:57;;;;;;;4.50;1.70;;;9.00;99.90;;;;;;5106034;28;20937;-67
2023/10/16 09:02:26;;;;;;;3.77;2.07;;;9.10;99.90;;;;;;5106275;28;20312;-67
2023/10/16 09:04:56;;;;;;;3.40;1.10;;;9.30;99.90;;;;;;5105873;28;20324;-67
2023/10/16 09:07:25;;;;;;;4.10;1.70;;;9.20;99.90;;;;;;5106196;28;20300;-67
2023/10/16 09:09:53;;;;;;;3.47;1.53;;;9.10;99.90;;;;;;5106286;28;20233;-67
2023/10/16 09:12:26;;;;;;;4.57;1.50;;;9.20;99.90;;;;;;5105762;28;20689;-67
2023/10/16 09:14:54;;;;;;;4.37;1.30;;;9.40;99.90;;;;;;5105947;28;20727;-67
2023/10/16 09:17:24;;;;;;;1.53;1.20;;;9.60;99.90;;;;;;5105947;28;20290;-67
2023/10/16 09:19:53;;;;;;;3.33;1.33;;;9.70;99.90;;;;;;5106210;28;20198;-67
2023/10/16 09:22:26;;;;;;;2.43;1.30;;;9.90;99.90;;;;;;5106003;28;20202;-67
2023/10/16 09:24:53;;;;;;;2.43;1.13;;;10.00;99.90;;;;;;5106255;28;20222;-67
2023/10/16 09:27:29;;;;;;;2.33;1.27;;;9.90;99.90;;;;;;5105566;28;20673;-67
2023/10/16 09:30:00;;;;;;;4.93;1.10;;;10.00;99.90;;;;;;5106079;28;20194;-67
2023/10/16 09:32:35;;;;;;;3.23;1.00;;;10.00;99.90;;;;;;5105636;28;20216;-67
2023/10/16 09:35:06;;;;;;;2.63;1.50;;;10.00;99.90;;;;;;5105499;28;20219;-68
2023/10/16 09:37:35;;;;;;;3.20;1.60;;;10.10;99.90;;;;;;5105877;28;20276;-67
2023/10/16 09:40:08;;;;;;;1.43;1.00;;;10.00;99.90;;;;;;5107708;28;20210;-67
2023/10/16 09:42:45;;;;;;;4.13;1.63;;;10.00;99.90;;;;;;5109644;28;20198;-67
2023/10/16 09:45:18;;;;;;;4.07;1.10;;;10.00;99.90;;;;;;5109572;28;20221;-67
2023/10/16 09:47:49;;;;;;;2.77;1.30;;;10.00;99.90;;;;;;5108907;28;20198;-67
2023/10/16 09:50:18;;;;;;;2.07;1.10;;;9.90;99.90;;;;;;5109854;27;20206;-68
2023/10/16 09:52:48;;;;;;;3.73;1.23;;;9.80;99.90;;;;;;5109415;28;20213;-67
2023/10/16 09:55:18;;;;;;;3.33;1.30;;;9.70;99.90;;;;;;5109498;27;20213;-67
2023/10/16 09:57:54;;;;;;;2.63;1.30;;;9.90;99.90;;;;;;5109256;28;20197;-67
2023/10/16 10:00:31;;;;;;;5.77;1.33;;;10.10;99.90;;;;;;5109493;28;20201;-67
2023/10/16 10:03:05;;;;;;;2.07;1.20;;;10.20;99.90;;;;;;5108980;28;20229;-67
2023/10/16 10:05:41;;;;;;;2.60;1.30;;;10.40;99.90;;;;;;5108693;28;20261;-67
2023/10/16 10:08:17;;;;;;;4.07;1.10;;;10.70;99.90;;;;;;5109277;28;20197;-67
2023/10/16 10:13:35;;;;;;;4.03;1.20;;;11.00;99.90;;;;;;5109148;28;20939;-68
2023/10/16 10:16:10;;;;;;;4.37;1.30;;;11.10;99.90;;;;;;5109048;28;20205;-67
2023/10/16 10:18:44;;;;;;;1.73;1.10;;;11.00;99.90;;;;;;5108715;28;20614;-67
2023/10/16 10:21:28;;;;;;;6.20;1.20;;;11.00;99.90;;;;;;5108950;28;20221;-68
2023/10/16 10:24:02;;;;;;;4.77;1.00;;;10.90;99.90;;;;;;5108768;28;20309;-66
2023/10/16 10:26:32;;;;;;;2.63;0.90;;;11.20;99.90;;;;;;5108576;28;20202;-66
2023/10/16 10:29:09;;;;;;;3.97;1.67;;;11.30;99.90;;;;;;5108713;28;20293;-67
2023/10/16 10:31:36;;;;;;;2.23;1.10;;;11.40;99.90;;;;;;5098950;28;20202;-67
2023/10/16 10:34:18;;;;;;;3.90;1.30;;;11.60;99.90;;;;;;5088291;28;20202;-67
2023/10/16 10:36:45;;;;;;;1.73;1.20;;;11.80;99.90;;;;;;5088044;28;20724;-67
2023/10/16 10:39:45;;;;;;;1.60;1.10;;;12.00;99.90;;;;;;5088340;28;20211;-67
2023/10/16 10:42:23;;;;;;;4.57;1.00;;;11.70;99.90;;;;;;5087961;28;20298;-67
2023/10/16 10:47:43;;;;;;;4.10;1.07;;;11.20;99.90;;;;;;5108269;28;20194;-67
2023/10/16 10:50:14;;;;;;;3.70;1.40;;;10.90;99.90;;;;;;5108013;28;20217;-67
2023/10/16 10:52:43;;;;;;;2.70;0.90;;;10.70;99.90;;;;;;5107553;28;20302;-67
2023/10/16 10:55:22;;;;;;;1.73;1.00;;;10.70;99.90;;;;;;5107758;28;20670;-67
2023/10/16 10:57:55;;;;;;;2.53;0.83;;;10.90;99.90;;;;;;5108315;28;20251;-67
2023/10/16 11:00:32;;;;;;;4.43;1.20;;;11.00;99.90;;;;;;5088058;28;20985;-67
2023/10/16 11:03:08;;;;;;;2.70;1.20;;;11.30;99.90;;;;;;5087569;28;20222;-67
2023/10/16 11:05:39;;;;;;;3.97;1.30;;;11.40;99.90;;;;;;5087733;28;20218;-67
2023/10/16 11:08:22;;;;;;;1.20;0.93;;;11.40;99.90;;;;;;5087420;28;20202;-67
2023/10/16 11:10:52;;;;;;;3.10;1.13;;;11.30;99.90;;;;;;5087747;28;20191;-67
2023/10/16 11:13:21;;;;;;;2.03;1.00;;;11.30;99.90;;;;;;5087930;28;20203;-67
2023/10/16 11:15:52;;;;;;;1.60;1.13;;;11.20;99.90;;;;;;5090050;28;20366;-67
2023/10/16 11:18:20;;;;;;;1.20;0.60;;;11.20;99.90;;;;;;5108261;28;20186;-67
2023/10/16 11:20:49;;;;;;;2.07;0.70;;;11.20;99.90;;;;;;5108218;28;20629;-67
2023/10/16 11:23:17;;;;;;;2.27;0.90;;;11.40;99.90;;;;;;5107887;28;20235;-67
2023/10/16 11:25:50;;;;;;;1.63;0.80;;;11.60;99.90;;;;;;5103107;28;20671;-67
2023/10/16 11:28:21;;;;;;;3.63;1.43;;;11.70;99.90;;;;;;5100766;28;20667;-67
2023/10/16 11:30:53;;;;;;;2.53;0.80;;;11.50;99.90;;;;;;5108195;28;20243;-67
2023/10/16 11:33:28;;;;;;;1.87;0.70;;;11.30;99.90;;;;;;5107733;28;20195;-67
2023/10/16 11:36:02;;;;;;;2.40;0.93;;;11.20;99.90;;;;;;5107293;28;20320;-67
2023/10/16 11:38:29;;;;;;;1.23;0.83;;;11.20;99.90;;;;;;5107679;28;20271;-67
2023/10/16 11:40:57;;;;;;;2.67;0.80;;;11.10;99.90;;;;;;5107457;28;20653;-67
2023/10/16 11:43:25;;;;;;;3.67;1.07;;;11.20;99.90;;;;;;5107409;28;20675;-67
2023/10/16 11:45:56;;;;;;;3.57;1.20;;;11.30;99.90;;;;;;5107714;28;20332;-67
2023/10/16 11:48:42;;;;;;;1.63;0.80;;;11.50;99.90;;;;;;5105050;28;20193;-67
2023/10/16 11:51:16;;;;;;;1.00;0.70;;;11.40;99.90;;;;;;5086723;28;20285;-67
2023/10/16 11:53:44;;;;;;;1.20;0.93;;;11.50;99.90;;;;;;5087103;28;20229;-66
2023/10/16 11:56:13;;;;;;;1.73;0.80;;;11.50;99.90;;;;;;5086787;28;20203;-66
2023/10/16 11:58:42;;;;;;;1.43;0.93;;;11.50;99.90;;;;;;5086613;28;20209;-66
2023/10/16 12:01:09;;;;;;;1.47;0.50;;;11.80;99.90;;;;;;5086596;28;20297;-67
2023/10/16 12:03:38;;;;;;;1.83;0.90;;;12.10;99.90;;;;;;5086377;28;20223;-66
2023/10/16 12:06:08;;;;;;;0.90;0.60;;;12.50;99.90;;;;;;5086748;28;20246;-66
2023/10/16 12:08:36;;;;;;;2.37;0.90;;;12.60;99.90;;;;;;5087030;28;20297;-66
2023/10/16 12:11:03;;;;;;;2.83;0.97;;;12.70;99.90;;;;;;5086135;28;20207;-67
2023/10/16 12:13:30;;;;;;;2.10;0.80;;;13.10;99.90;;;;;;5086769;28;20209;-66
2023/10/16 12:15:59;;;;;;;4.03;0.87;;;12.70;99.90;;;;;;5090234;28;20971;-66
2023/10/16 12:18:28;;;;;;;1.87;0.80;;;12.40;99.90;;;;;;5106692;28;20202;-66
2023/10/16 12:20:59;;;;;;;2.27;0.90;;;12.20;99.90;;;;;;5103303;28;20244;-67
2023/10/16 12:23:33;;;;;;;0.90;0.53;;;11.80;99.90;;;;;;5086966;28;20321;-66
2023/10/16 12:26:01;;;;;;;2.30;0.93;;;11.60;99.90;;;;;;5086573;28;20241;-66
2023/10/16 12:28:30;;;;;;;3.63;0.90;;;12.10;99.90;;;;;;5086226;28;20214;-66
2023/10/16 12:30:59;;;;;;;2.90;0.80;;;12.20;99.90;;;;;;5086500;28;20364;-66
2023/10/16 12:33:26;;;;;;;2.57;0.90;;;12.20;99.90;;;;;;5086167;28;20289;-66
2023/10/16 12:35:55;;;;;;;0.80;0.77;;;12.20;99.90;;;;;;5085475;28;20357;-67
2023/10/16 12:38:24;;;;;;;1.47;0.80;;;12.10;99.90;;;;;;5104095;28;20206;-67
2023/10/16 12:40:58;;;;;;;2.70;1.10;;;12.00;99.90;;;;;;5106356;28;20210;-67
2023/10/16 12:43:27;;;;;;;0.80;0.60;;;11.90;99.90;;;;;;5105740;28;20700;-66
2023/10/16 12:45:56;;;;;;;3.07;0.70;;;11.80;99.90;;;;;;5096163;28;20236;-66
2023/10/16 12:48:28;;;;;;;1.70;1.10;;;11.80;99.90;;;;;;5106336;28;20232;-67
2023/10/16 12:50:59;;;;;;;2.53;1.20;;;11.70;99.90;;;;;;5105958;28;20205;-66
2023/10/16 12:53:27;;;;;;;1.90;0.60;;;11.60;99.90;;;;;;5091478;28;20984;-66
2023/10/16 12:55:58;;;;;;;0.93;0.70;;;11.60;99.90;;;;;;5085652;28;20222;-66
2023/10/16 12:58:24;;;;;;;2.50;1.00;;;12.00;99.90;;;;;;5085720;28;20721;-66
2023/10/16 13:00:51;;;;;;;2.87;1.33;;;12.00;99.90;;;;;;5085421;28;20381;-67
2023/10/16 13:03:20;;;;;;;1.70;1.37;;;11.80;99.90;;;;;;5087330;28;20671;-66
2023/10/16 13:05:49;;;;;;;1.40;1.07;;;11.60;99.90;;;;;;5099761;28;20318;-67
2023/10/16 13:08:20;;;;;;;2.03;0.60;;;11.60;99.90;;;;;;5103911;28;20288;-66
2023/10/16 13:10:48;;;;;;;2.60;0.83;;;11.40;99.90;;;;;;5104032;28;20238;-67
2023/10/16 13:13:19;;;;;;;1.43;0.70;;;11.40;99.90;;;;;;5092592;28;20255;-66
2023/10/16 13:15:51;;;;;;;2.97;0.83;;;11.30;99.90;;;;;;5085367;28;20269;-67
2023/10/16 13:18:26;;;;;;;3.37;0.87;;;11.20;99.90;;;;;;5091010;28;20241;-66
2023/10/16 13:21:04;;;;;;;1.83;0.60;;;11.10;99.90;;;;;;5086243;28;20251;-66
2023/10/16 13:23:33;;;;;;;2.53;0.87;;;11.10;99.90;;;;;;5088040;28;20205;-67
2023/10/16 13:26:00;;;;;;;1.10;0.67;;;11.00;99.90;;;;;;5083642;28;20234;-66
2023/10/16 13:28:27;;;;;;;0.93;0.77;;;10.90;99.90;;;;;;5091344;28;20263;-66
2023/10/16 13:30:53;;;;;;;0.80;0.80;;;10.90;99.90;;;;;;5103187;28;20405;-66
2023/10/16 13:33:20;;;;;;;2.87;0.83;;;10.90;99.90;;;;;;5090204;28;20210;-66
2023/10/16 13:35:47;;;;;;;1.33;0.90;;;10.90;99.90;;;;;;5083390;28;20268;-66
2023/10/16 13:38:18;;;;;;;2.03;0.80;;;11.00;99.90;;;;;;5084081;28;20294;-66
2023/10/16 13:40:46;;;;;;;3.00;0.90;;;11.00;99.90;;;;;;5085624;28;20708;-66
2023/10/16 13:43:17;;;;;;;1.03;0.90;;;11.00;99.90;;;;;;5104267;28;20206;-67
2023/10/16 13:45:44;;;;;;;1.70;0.77;;;11.10;99.90;;;;;;5103762;28;20221;-66
2023/10/16 13:48:11;;;;;;;2.20;1.07;;;11.10;99.90;;;;;;5088306;28;20301;-66
2023/10/16 13:50:40;;;;;;;1.07;0.80;;;11.20;99.90;;;;;;5083783;28;20207;-66
2023/10/16 13:53:08;;;;;;;2.40;1.30;;;11.10;99.90;;;;;;5083148;28;20665;-66
2023/10/16 13:55:36;;;;;;;2.50;1.00;;;11.10;99.90;;;;;;5098771;28;20202;-67
2023/10/16 13:58:05;;;;;;;0.80;0.80;;;11.10;99.90;;;;;;5084703;28;20215;-67
2023/10/16 14:00:35;;;;;;;1.50;0.80;;;11.10;99.90;;;;;;5084096;28;20210;-67
2023/10/16 14:03:06;;;;;;;0.70;0.60;;;11.10;99.90;;;;;;5107772;28;20239;-66
2023/10/16 14:05:38;;;;;;;1.07;0.90;;;11.00;99.90;;;;;;5108197;27;20226;-67
2023/10/16 14:08:09;;;;;;;2.23;0.70;;;11.00;99.90;;;;;;5103553;28;20713;-66
2023/10/16 14:10:38;;;;;;;1.07;0.77;;;10.90;99.90;;;;;;5103430;28;20202;-67
2023/10/16 14:13:18;;;;;;;1.77;1.07;;;10.90;99.90;;;;;;5102578;28;20198;-66
2023/10/16 14:15:46;;;;;;;1.23;0.60;;;11.00;99.90;;;;;;5086053;28;20218;-66
2023/10/16 14:18:15;;;;;;;1.23;0.77;;;11.00;99.90;;;;;;5103225;28;20719;-66
2023/10/16 14:20:45;;;;;;;4.10;1.00;;;11.00;99.90;;;;;;5103381;28;20206;-66
2023/10/16 14:23:12;;;;;;;2.30;0.73;;;11.00;99.90;;;;;;5103248;28;20945;-66
2023/10/16 14:25:45;;;;;;;1.37;0.80;;;11.00;99.90;;;;;;5100846;28;20227;-66
2023/10/16 14:28:32;;;;;;;1.23;0.60;;;11.10;99.90;;;;;;5087001;28;20219;-66
2023/10/16 14:31:00;;;;;;;2.90;0.60;;;11.10;99.90;;;;;;5086580;28;20617;-66
2023/10/16 14:33:30;;;;;;;2.10;0.67;;;11.10;99.90;;;;;;5089082;28;20225;-66
2023/10/16 14:35:57;;;;;;;1.10;0.60;;;11.00;99.90;;;;;;5106682;28;20230;-67
2023/10/16 14:38:24;;;;;;;1.77;0.80;;;11.00;99.90;;;;;;5106303;28;20210;-67
2023/10/16 14:40:55;;;;;;;0.80;0.80;;;11.00;99.90;;;;;;5102316;27;20311;-67
2023/10/16 14:43:22;;;;;;;2.47;0.77;;;11.10;99.90;;;;;;5107634;28;20266;-67
2023/10/16 14:45:53;;;;;;;1.73;0.93;;;11.30;99.90;;;;;;5098570;28;20230;-67
2023/10/16 14:48:22;;;;;;;2.40;0.67;;;11.60;99.90;;;;;;5107124;28;20191;-67